sensor_id;sensor_type;location;lat;lon;timestamp;P1;durP1;ratioP1;P2;durP2;ratioP2
38937;SDS011;24727;51.974;20.868;2024-01-25T00:01:42;8.23;;;2.28;;
38937;SDS011;24727;51.974;20.868;2024-01-25T00:04:08;6.03;;;1.40;;
38937;SDS011;24727;51.974;20.868;2024-01-25T00:06:34;7.13;;;1.80;;
38937;SDS011;24727;51.974;20.868;2024-01-25T00:09:00;4.63;;;1.00;;
38937;SDS011;24727;51.974;20.868;2024-01-25T00:11:26;4.28;;;0.75;;
38937;SDS011;24727;51.974;20.868;2024-01-25T00:13:52;5.10;;;1.13;;
38937;SDS011;24727;51.974;20.868;2024-01-25T00:16:17;7.82;;;1.45;;
38937;SDS011;24727;51.974;20.868;2024-01-25T00:18:43;5.10;;;1.15;;
38937;SDS011;24727;51.974;20.868;2024-01-25T00:21:09;4.43;;;1.45;;
38937;SDS011;24727;51.974;20.868;2024-01-25T00:23:35;5.80;;;1.65;;
38937;SDS011;24727;51.974;20.868;2024-01-25T00:26:01;9.13;;;1.80;;
38937;SDS011;24727;51.974;20.868;2024-01-25T00:28:27;3.53;;;1.35;;
38937;SDS011;24727;51.974;20.868;2024-01-25T00:30:54;5.45;;;1.35;;
38937;SDS011;24727;51.974;20.868;2024-01-25T00:33:20;6.25;;;1.75;;
38937;SDS011;24727;51.974;20.868;2024-01-25T00:35:45;7.63;;;1.40;;
38937;SDS011;24727;51.974;20.868;2024-01-25T00:38:13;5.25;;;1.50;;
38937;SDS011;24727;51.974;20.868;2024-01-25T00:40:39;7.45;;;2.10;;
38937;SDS011;24727;51.974;20.868;2024-01-25T00:43:05;6.93;;;2.50;;
38937;SDS011;24727;51.974;20.868;2024-01-25T00:45:33;5.57;;;1.65;;
38937;SDS011;24727;51.974;20.868;2024-01-25T00:47:59;6.03;;;1.98;;
38937;SDS011;24727;51.974;20.868;2024-01-25T00:50:25;9.02;;;2.22;;
38937;SDS011;24727;51.974;20.868;2024-01-25T00:52:51;7.25;;;1.98;;
38937;SDS011;24727;51.974;20.868;2024-01-25T00:55:18;11.82;;;2.30;;
38937;SDS011;24727;51.974;20.868;2024-01-25T00:57:44;11.35;;;1.50;;
38937;SDS011;24727;51.974;20.868;2024-01-25T01:00:10;5.72;;;1.90;;
38937;SDS011;24727;51.974;20.868;2024-01-25T01:02:42;12.57;;;2.88;;
38937;SDS011;24727;51.974;20.868;2024-01-25T01:05:09;8.40;;;2.15;;
38937;SDS011;24727;51.974;20.868;2024-01-25T01:07:36;10.57;;;2.45;;
38937;SDS011;24727;51.974;20.868;2024-01-25T01:10:02;12.68;;;2.72;;
38937;SDS011;24727;51.974;20.868;2024-01-25T01:12:28;14.32;;;3.10;;
38937;SDS011;24727;51.974;20.868;2024-01-25T01:14:55;11.13;;;2.58;;
38937;SDS011;24727;51.974;20.868;2024-01-25T01:17:21;7.07;;;2.35;;
38937;SDS011;24727;51.974;20.868;2024-01-25T01:19:47;11.32;;;2.83;;
38937;SDS011;24727;51.974;20.868;2024-01-25T01:22:13;9.85;;;2.83;;
38937;SDS011;24727;51.974;20.868;2024-01-25T01:24:39;12.50;;;3.58;;
38937;SDS011;24727;51.974;20.868;2024-01-25T01:27:05;8.05;;;2.42;;
38937;SDS011;24727;51.974;20.868;2024-01-25T01:29:31;15.80;;;2.22;;
38937;SDS011;24727;51.974;20.868;2024-01-25T01:31:56;16.30;;;3.72;;
38937;SDS011;24727;51.974;20.868;2024-01-25T01:34:23;12.32;;;3.67;;
38937;SDS011;24727;51.974;20.868;2024-01-25T01:36:49;13.18;;;2.95;;
38937;SDS011;24727;51.974;20.868;2024-01-25T01:39:14;13.80;;;2.67;;
38937;SDS011;24727;51.974;20.868;2024-01-25T01:41:40;10.80;;;2.50;;
38937;SDS011;24727;51.974;20.868;2024-01-25T01:44:06;10.23;;;2.20;;
38937;SDS011;24727;51.974;20.868;2024-01-25T01:46:33;13.77;;;2.08;;
38937;SDS011;24727;51.974;20.868;2024-01-25T01:49:01;9.95;;;2.70;;
38937;SDS011;24727;51.974;20.868;2024-01-25T02:04:25;13.57;;;2.53;;
38937;SDS011;24727;51.974;20.868;2024-01-25T02:06:50;10.75;;;2.67;;
38937;SDS011;24727;51.974;20.868;2024-01-25T02:09:17;10.77;;;3.10;;
38937;SDS011;24727;51.974;20.868;2024-01-25T02:11:42;10.02;;;2.33;;
38937;SDS011;24727;51.974;20.868;2024-01-25T02:14:08;11.02;;;2.53;;
38937;SDS011;24727;51.974;20.868;2024-01-25T02:16:37;10.82;;;2.60;;
38937;SDS011;24727;51.974;20.868;2024-01-25T02:19:03;9.93;;;2.15;;
38937;SDS011;24727;51.974;20.868;2024-01-25T02:21:29;10.85;;;2.58;;
38937;SDS011;24727;51.974;20.868;2024-01-25T02:23:55;13.27;;;2.20;;
38937;SDS011;24727;51.974;20.868;2024-01-25T02:26:20;10.32;;;2.13;;
38937;SDS011;24727;51.974;20.868;2024-01-25T02:28:46;16.60;;;2.55;;
38937;SDS011;24727;51.974;20.868;2024-01-25T02:31:12;9.90;;;2.70;;
38937;SDS011;24727;51.974;20.868;2024-01-25T02:33:38;9.55;;;1.90;;
38937;SDS011;24727;51.974;20.868;2024-01-25T02:36:04;11.07;;;2.28;;
38937;SDS011;24727;51.974;20.868;2024-01-25T02:38:30;15.82;;;2.97;;
38937;SDS011;24727;51.974;20.868;2024-01-25T02:40:56;7.82;;;2.00;;
38937;SDS011;24727;51.974;20.868;2024-01-25T02:43:22;11.38;;;2.60;;
38937;SDS011;24727;51.974;20.868;2024-01-25T02:45:48;10.57;;;2.33;;
38937;SDS011;24727;51.974;20.868;2024-01-25T02:48:14;12.10;;;2.55;;
38937;SDS011;24727;51.974;20.868;2024-01-25T02:50:40;11.18;;;2.63;;
38937;SDS011;24727;51.974;20.868;2024-01-25T02:53:06;12.57;;;2.25;;
38937;SDS011;24727;51.974;20.868;2024-01-25T02:55:32;8.27;;;1.98;;
38937;SDS011;24727;51.974;20.868;2024-01-25T02:57:58;9.50;;;2.35;;
38937;SDS011;24727;51.974;20.868;2024-01-25T03:00:24;11.43;;;2.20;;
38937;SDS011;24727;51.974;20.868;2024-01-25T03:02:49;10.38;;;1.95;;
38937;SDS011;24727;51.974;20.868;2024-01-25T03:05:15;10.48;;;2.08;;
38937;SDS011;24727;51.974;20.868;2024-01-25T03:07:41;10.45;;;2.92;;
38937;SDS011;24727;51.974;20.868;2024-01-25T03:10:07;6.80;;;1.70;;
38937;SDS011;24727;51.974;20.868;2024-01-25T03:12:33;7.57;;;1.77;;
38937;SDS011;24727;51.974;20.868;2024-01-25T03:14:59;5.75;;;2.78;;
38937;SDS011;24727;51.974;20.868;2024-01-25T03:17:24;8.80;;;2.10;;
38937;SDS011;24727;51.974;20.868;2024-01-25T03:19:50;10.57;;;2.33;;
38937;SDS011;24727;51.974;20.868;2024-01-25T03:22:16;9.98;;;2.08;;
38937;SDS011;24727;51.974;20.868;2024-01-25T03:24:42;12.55;;;2.22;;
38937;SDS011;24727;51.974;20.868;2024-01-25T03:27:08;7.00;;;1.83;;
38937;SDS011;24727;51.974;20.868;2024-01-25T03:29:40;12.32;;;2.80;;
38937;SDS011;24727;51.974;20.868;2024-01-25T03:32:09;14.52;;;2.10;;
38937;SDS011;24727;51.974;20.868;2024-01-25T03:34:35;16.35;;;2.15;;
38937;SDS011;24727;51.974;20.868;2024-01-25T03:37:01;15.38;;;2.65;;
38937;SDS011;24727;51.974;20.868;2024-01-25T03:39:27;9.07;;;2.47;;
38937;SDS011;24727;51.974;20.868;2024-01-25T03:41:53;11.60;;;2.20;;
38937;SDS011;24727;51.974;20.868;2024-01-25T03:44:19;9.02;;;2.03;;
38937;SDS011;24727;51.974;20.868;2024-01-25T03:46:45;14.30;;;2.38;;
38937;SDS011;24727;51.974;20.868;2024-01-25T03:49:11;10.02;;;2.63;;
38937;SDS011;24727;51.974;20.868;2024-01-25T03:51:37;14.32;;;2.22;;
38937;SDS011;24727;51.974;20.868;2024-01-25T03:54:03;11.55;;;3.35;;
38937;SDS011;24727;51.974;20.868;2024-01-25T03:56:29;14.65;;;3.05;;
38937;SDS011;24727;51.974;20.868;2024-01-25T03:58:54;13.18;;;2.35;;
38937;SDS011;24727;51.974;20.868;2024-01-25T04:01:20;15.25;;;3.08;;
38937;SDS011;24727;51.974;20.868;2024-01-25T04:03:46;10.65;;;2.95;;
38937;SDS011;24727;51.974;20.868;2024-01-25T04:06:12;10.82;;;2.08;;
38937;SDS011;24727;51.974;20.868;2024-01-25T04:08:38;11.80;;;2.33;;
38937;SDS011;24727;51.974;20.868;2024-01-25T04:11:03;15.05;;;2.63;;
38937;SDS011;24727;51.974;20.868;2024-01-25T04:13:29;8.93;;;1.85;;
38937;SDS011;24727;51.974;20.868;2024-01-25T04:15:55;10.48;;;1.80;;
38937;SDS011;24727;51.974;20.868;2024-01-25T04:18:21;9.80;;;2.90;;
38937;SDS011;24727;51.974;20.868;2024-01-25T04:20:47;14.20;;;2.08;;
38937;SDS011;24727;51.974;20.868;2024-01-25T04:23:13;9.32;;;2.05;;
38937;SDS011;24727;51.974;20.868;2024-01-25T04:25:38;9.40;;;1.90;;
38937;SDS011;24727;51.974;20.868;2024-01-25T04:28:04;8.40;;;2.08;;
38937;SDS011;24727;51.974;20.868;2024-01-25T04:30:30;10.38;;;2.45;;
38937;SDS011;24727;51.974;20.868;2024-01-25T04:32:57;11.98;;;2.42;;
38937;SDS011;24727;51.974;20.868;2024-01-25T04:35:24;9.23;;;2.47;;
38937;SDS011;24727;51.974;20.868;2024-01-25T04:37:50;7.78;;;1.70;;
38937;SDS011;24727;51.974;20.868;2024-01-25T04:40:15;8.45;;;1.70;;
38937;SDS011;24727;51.974;20.868;2024-01-25T04:42:41;8.35;;;2.17;;
38937;SDS011;24727;51.974;20.868;2024-01-25T04:45:07;14.35;;;2.25;;
38937;SDS011;24727;51.974;20.868;2024-01-25T04:47:33;10.20;;;2.10;;
38937;SDS011;24727;51.974;20.868;2024-01-25T04:49:59;13.35;;;2.17;;
38937;SDS011;24727;51.974;20.868;2024-01-25T05:04:57;10.60;;;2.70;;
38937;SDS011;24727;51.974;20.868;2024-01-25T05:07:23;10.65;;;2.17;;
38937;SDS011;24727;51.974;20.868;2024-01-25T05:09:49;9.88;;;3.47;;
38937;SDS011;24727;51.974;20.868;2024-01-25T05:12:15;9.73;;;2.10;;
38937;SDS011;24727;51.974;20.868;2024-01-25T05:14:41;11.35;;;2.05;;
38937;SDS011;24727;51.974;20.868;2024-01-25T05:17:07;12.55;;;3.00;;
38937;SDS011;24727;51.974;20.868;2024-01-25T05:19:33;12.75;;;2.15;;
38937;SDS011;24727;51.974;20.868;2024-01-25T05:22:08;10.75;;;3.05;;
38937;SDS011;24727;51.974;20.868;2024-01-25T05:24:33;12.57;;;3.00;;
38937;SDS011;24727;51.974;20.868;2024-01-25T05:26:59;15.63;;;2.70;;
38937;SDS011;24727;51.974;20.868;2024-01-25T05:29:25;12.30;;;3.60;;
38937;SDS011;24727;51.974;20.868;2024-01-25T05:31:51;9.77;;;3.05;;
38937;SDS011;24727;51.974;20.868;2024-01-25T05:34:17;13.82;;;3.08;;
38937;SDS011;24727;51.974;20.868;2024-01-25T05:36:43;15.85;;;2.35;;
38937;SDS011;24727;51.974;20.868;2024-01-25T05:39:08;9.85;;;2.90;;
38937;SDS011;24727;51.974;20.868;2024-01-25T05:41:34;15.73;;;2.80;;
38937;SDS011;24727;51.974;20.868;2024-01-25T05:44:00;12.20;;;2.92;;
38937;SDS011;24727;51.974;20.868;2024-01-25T05:46:26;11.88;;;2.42;;
38937;SDS011;24727;51.974;20.868;2024-01-25T05:48:52;11.88;;;2.92;;
38937;SDS011;24727;51.974;20.868;2024-01-25T05:51:18;12.40;;;2.30;;
38937;SDS011;24727;51.974;20.868;2024-01-25T05:53:44;13.30;;;3.60;;
38937;SDS011;24727;51.974;20.868;2024-01-25T05:56:09;10.13;;;2.45;;
38937;SDS011;24727;51.974;20.868;2024-01-25T05:58:35;17.25;;;2.85;;
38937;SDS011;24727;51.974;20.868;2024-01-25T06:01:01;13.18;;;2.63;;
38937;SDS011;24727;51.974;20.868;2024-01-25T06:03:27;11.23;;;3.08;;
38937;SDS011;24727;51.974;20.868;2024-01-25T06:05:53;15.70;;;3.20;;
38937;SDS011;24727;51.974;20.868;2024-01-25T06:08:19;12.02;;;2.65;;
38937;SDS011;24727;51.974;20.868;2024-01-25T06:10:45;16.38;;;3.60;;
38937;SDS011;24727;51.974;20.868;2024-01-25T06:13:11;13.95;;;2.53;;
38937;SDS011;24727;51.974;20.868;2024-01-25T06:15:37;17.77;;;2.92;;
38937;SDS011;24727;51.974;20.868;2024-01-25T06:18:04;10.90;;;3.45;;
38937;SDS011;24727;51.974;20.868;2024-01-25T06:20:30;17.83;;;3.22;;
38937;SDS011;24727;51.974;20.868;2024-01-25T06:22:56;15.60;;;3.50;;
38937;SDS011;24727;51.974;20.868;2024-01-25T06:25:22;14.85;;;2.95;;
38937;SDS011;24727;51.974;20.868;2024-01-25T06:27:47;14.63;;;3.00;;
38937;SDS011;24727;51.974;20.868;2024-01-25T06:30:13;13.18;;;2.53;;
38937;SDS011;24727;51.974;20.868;2024-01-25T06:32:39;8.90;;;2.08;;
38937;SDS011;24727;51.974;20.868;2024-01-25T06:35:05;12.57;;;3.20;;
38937;SDS011;24727;51.974;20.868;2024-01-25T06:37:32;14.20;;;2.97;;
38937;SDS011;24727;51.974;20.868;2024-01-25T06:39:58;14.68;;;2.88;;
38937;SDS011;24727;51.974;20.868;2024-01-25T06:42:24;13.15;;;4.07;;
38937;SDS011;24727;51.974;20.868;2024-01-25T06:44:49;9.25;;;2.55;;
38937;SDS011;24727;51.974;20.868;2024-01-25T06:47:15;14.20;;;2.92;;
38937;SDS011;24727;51.974;20.868;2024-01-25T06:49:41;9.20;;;2.70;;
38937;SDS011;24727;51.974;20.868;2024-01-25T06:52:07;12.55;;;3.03;;
38937;SDS011;24727;51.974;20.868;2024-01-25T06:54:32;12.82;;;3.63;;
38937;SDS011;24727;51.974;20.868;2024-01-25T06:56:58;10.23;;;2.72;;
38937;SDS011;24727;51.974;20.868;2024-01-25T06:59:24;9.27;;;2.35;;
38937;SDS011;24727;51.974;20.868;2024-01-25T07:01:50;11.25;;;2.45;;
38937;SDS011;24727;51.974;20.868;2024-01-25T07:04:16;12.05;;;2.25;;
38937;SDS011;24727;51.974;20.868;2024-01-25T07:06:42;11.88;;;2.13;;
38937;SDS011;24727;51.974;20.868;2024-01-25T07:09:07;11.55;;;3.65;;
38937;SDS011;24727;51.974;20.868;2024-01-25T07:11:33;8.60;;;2.22;;
38937;SDS011;24727;51.974;20.868;2024-01-25T07:13:59;8.98;;;1.67;;
38937;SDS011;24727;51.974;20.868;2024-01-25T07:16:25;9.93;;;2.55;;
38937;SDS011;24727;51.974;20.868;2024-01-25T07:37:09;12.18;;;3.47;;
38937;SDS011;24727;51.974;20.868;2024-01-25T07:39:36;10.95;;;2.80;;
38937;SDS011;24727;51.974;20.868;2024-01-25T07:42:02;11.48;;;2.60;;
38937;SDS011;24727;51.974;20.868;2024-01-25T08:00:30;11.23;;;2.72;;
38937;SDS011;24727;51.974;20.868;2024-01-25T08:02:57;7.55;;;2.35;;
38937;SDS011;24727;51.974;20.868;2024-01-25T08:05:22;10.23;;;2.35;;
38937;SDS011;24727;51.974;20.868;2024-01-25T08:07:51;7.78;;;2.28;;
38937;SDS011;24727;51.974;20.868;2024-01-25T08:28:11;9.00;;;2.35;;
38937;SDS011;24727;51.974;20.868;2024-01-25T08:30:37;6.50;;;2.63;;
38937;SDS011;24727;51.974;20.868;2024-01-25T08:33:09;6.38;;;2.35;;
38937;SDS011;24727;51.974;20.868;2024-01-25T08:35:41;7.40;;;2.38;;
38937;SDS011;24727;51.974;20.868;2024-01-25T08:38:12;9.00;;;2.95;;
38937;SDS011;24727;51.974;20.868;2024-01-25T08:40:38;8.90;;;2.42;;
38937;SDS011;24727;51.974;20.868;2024-01-25T08:43:04;10.50;;;2.45;;
38937;SDS011;24727;51.974;20.868;2024-01-25T08:45:30;11.95;;;3.20;;
38937;SDS011;24727;51.974;20.868;2024-01-25T08:47:55;10.32;;;3.10;;
38937;SDS011;24727;51.974;20.868;2024-01-25T08:50:22;8.82;;;2.45;;
38937;SDS011;24727;51.974;20.868;2024-01-25T08:52:48;7.85;;;2.80;;
38937;SDS011;24727;51.974;20.868;2024-01-25T08:55:14;7.47;;;2.47;;
38937;SDS011;24727;51.974;20.868;2024-01-25T08:57:40;6.75;;;2.47;;
38937;SDS011;24727;51.974;20.868;2024-01-25T09:00:06;12.63;;;4.25;;
38937;SDS011;24727;51.974;20.868;2024-01-25T09:02:35;9.52;;;3.25;;
38937;SDS011;24727;51.974;20.868;2024-01-25T09:05:02;9.80;;;3.75;;
38937;SDS011;24727;51.974;20.868;2024-01-25T09:07:29;9.07;;;3.38;;
38937;SDS011;24727;51.974;20.868;2024-01-25T09:09:56;9.82;;;3.15;;
38937;SDS011;24727;51.974;20.868;2024-01-25T09:12:21;7.28;;;2.60;;
38937;SDS011;24727;51.974;20.868;2024-01-25T09:14:47;9.85;;;2.53;;
38937;SDS011;24727;51.974;20.868;2024-01-25T09:17:13;7.88;;;2.90;;
38937;SDS011;24727;51.974;20.868;2024-01-25T09:19:40;7.85;;;4.13;;
38937;SDS011;24727;51.974;20.868;2024-01-25T09:22:06;7.32;;;3.55;;
38937;SDS011;24727;51.974;20.868;2024-01-25T09:24:33;8.23;;;3.03;;
38937;SDS011;24727;51.974;20.868;2024-01-25T09:27:01;4.45;;;2.42;;
38937;SDS011;24727;51.974;20.868;2024-01-25T09:29:27;6.53;;;2.75;;
38937;SDS011;24727;51.974;20.868;2024-01-25T09:31:53;5.68;;;2.97;;
38937;SDS011;24727;51.974;20.868;2024-01-25T09:34:19;6.20;;;3.20;;
38937;SDS011;24727;51.974;20.868;2024-01-25T09:36:46;7.40;;;3.30;;
38937;SDS011;24727;51.974;20.868;2024-01-25T09:39:12;6.57;;;2.53;;
38937;SDS011;24727;51.974;20.868;2024-01-25T09:41:39;6.22;;;3.30;;
38937;SDS011;24727;51.974;20.868;2024-01-25T09:44:07;5.43;;;3.05;;
38937;SDS011;24727;51.974;20.868;2024-01-25T09:46:33;6.32;;;2.78;;
38937;SDS011;24727;51.974;20.868;2024-01-25T09:49:00;4.85;;;2.90;;
38937;SDS011;24727;51.974;20.868;2024-01-25T09:51:31;8.52;;;3.38;;
38937;SDS011;24727;51.974;20.868;2024-01-25T09:54:08;4.72;;;2.45;;
38937;SDS011;24727;51.974;20.868;2024-01-25T09:56:34;5.45;;;2.88;;
38937;SDS011;24727;51.974;20.868;2024-01-25T09:59:00;5.47;;;2.75;;
38937;SDS011;24727;51.974;20.868;2024-01-25T10:01:27;6.05;;;2.90;;
38937;SDS011;24727;51.974;20.868;2024-01-25T10:03:53;4.50;;;2.35;;
38937;SDS011;24727;51.974;20.868;2024-01-25T10:06:22;4.68;;;2.78;;
38937;SDS011;24727;51.974;20.868;2024-01-25T10:08:48;6.43;;;2.85;;
38937;SDS011;24727;51.974;20.868;2024-01-25T10:11:14;3.35;;;2.75;;
38937;SDS011;24727;51.974;20.868;2024-01-25T10:13:41;6.03;;;3.00;;
38937;SDS011;24727;51.974;20.868;2024-01-25T10:16:15;5.00;;;2.40;;
38937;SDS011;24727;51.974;20.868;2024-01-25T10:18:42;4.82;;;2.90;;
38937;SDS011;24727;51.974;20.868;2024-01-25T10:21:09;4.72;;;2.53;;
38937;SDS011;24727;51.974;20.868;2024-01-25T10:23:36;4.00;;;2.30;;
38937;SDS011;24727;51.974;20.868;2024-01-25T10:26:02;3.78;;;2.40;;
38937;SDS011;24727;51.974;20.868;2024-01-25T10:28:28;4.30;;;2.50;;
38937;SDS011;24727;51.974;20.868;2024-01-25T10:30:59;6.75;;;3.22;;
38937;SDS011;24727;51.974;20.868;2024-01-25T10:33:27;4.45;;;2.58;;
38937;SDS011;24727;51.974;20.868;2024-01-25T10:35:54;6.60;;;2.20;;
38937;SDS011;24727;51.974;20.868;2024-01-25T10:38:25;4.95;;;2.45;;
38937;SDS011;24727;51.974;20.868;2024-01-25T10:40:51;5.68;;;2.53;;
38937;SDS011;24727;51.974;20.868;2024-01-25T10:43:18;5.53;;;3.08;;
38937;SDS011;24727;51.974;20.868;2024-01-25T10:45:45;5.25;;;2.13;;
38937;SDS011;24727;51.974;20.868;2024-01-25T10:48:11;6.30;;;2.72;;
38937;SDS011;24727;51.974;20.868;2024-01-25T10:50:38;4.93;;;2.33;;
38937;SDS011;24727;51.974;20.868;2024-01-25T10:53:05;3.97;;;2.50;;
38937;SDS011;24727;51.974;20.868;2024-01-25T10:55:32;6.20;;;2.20;;
38937;SDS011;24727;51.974;20.868;2024-01-25T10:57:59;4.18;;;2.83;;
38937;SDS011;24727;51.974;20.868;2024-01-25T11:00:25;4.63;;;2.83;;
38937;SDS011;24727;51.974;20.868;2024-01-25T11:02:51;6.55;;;2.85;;
38937;SDS011;24727;51.974;20.868;2024-01-25T11:05:17;3.38;;;2.70;;
38937;SDS011;24727;51.974;20.868;2024-01-25T11:07:47;4.07;;;2.33;;
38937;SDS011;24727;51.974;20.868;2024-01-25T11:10:15;4.50;;;2.67;;
38937;SDS011;24727;51.974;20.868;2024-01-25T11:15:21;5.97;;;3.17;;
38937;SDS011;24727;51.974;20.868;2024-01-25T11:17:54;4.20;;;2.75;;
38937;SDS011;24727;51.974;20.868;2024-01-25T11:20:20;6.40;;;3.50;;
38937;SDS011;24727;51.974;20.868;2024-01-25T11:22:48;5.78;;;3.40;;
38937;SDS011;24727;51.974;20.868;2024-01-25T11:25:20;9.38;;;3.72;;
38937;SDS011;24727;51.974;20.868;2024-01-25T11:27:46;5.95;;;2.95;;
38937;SDS011;24727;51.974;20.868;2024-01-25T11:30:17;5.78;;;2.63;;
38937;SDS011;24727;51.974;20.868;2024-01-25T11:32:46;5.07;;;2.88;;
38937;SDS011;24727;51.974;20.868;2024-01-25T11:35:13;3.80;;;2.20;;
38937;SDS011;24727;51.974;20.868;2024-01-25T11:37:45;6.18;;;2.85;;
38937;SDS011;24727;51.974;20.868;2024-01-25T11:40:12;3.08;;;2.47;;
38937;SDS011;24727;51.974;20.868;2024-01-25T11:42:40;5.00;;;2.35;;
38937;SDS011;24727;51.974;20.868;2024-01-25T11:45:10;5.18;;;2.78;;
38937;SDS011;24727;51.974;20.868;2024-01-25T11:47:37;3.60;;;2.53;;
38937;SDS011;24727;51.974;20.868;2024-01-25T11:50:07;3.95;;;2.40;;
38937;SDS011;24727;51.974;20.868;2024-01-25T11:52:35;5.50;;;2.55;;
38937;SDS011;24727;51.974;20.868;2024-01-25T11:55:01;4.93;;;2.60;;
38937;SDS011;24727;51.974;20.868;2024-01-25T11:57:29;4.05;;;2.40;;
38937;SDS011;24727;51.974;20.868;2024-01-25T11:59:57;6.13;;;3.22;;
38937;SDS011;24727;51.974;20.868;2024-01-25T12:02:23;4.90;;;2.95;;
38937;SDS011;24727;51.974;20.868;2024-01-25T12:04:49;5.78;;;3.33;;
38937;SDS011;24727;51.974;20.868;2024-01-25T12:07:19;5.32;;;3.60;;
38937;SDS011;24727;51.974;20.868;2024-01-25T12:09:56;9.45;;;3.88;;
38937;SDS011;24727;51.974;20.868;2024-01-25T12:12:23;6.10;;;3.72;;
38937;SDS011;24727;51.974;20.868;2024-01-25T12:14:49;8.93;;;3.63;;
38937;SDS011;24727;51.974;20.868;2024-01-25T12:17:17;7.63;;;3.58;;
38937;SDS011;24727;51.974;20.868;2024-01-25T12:19:43;5.38;;;3.17;;
38937;SDS011;24727;51.974;20.868;2024-01-25T12:22:09;5.63;;;3.42;;
38937;SDS011;24727;51.974;20.868;2024-01-25T12:24:35;4.95;;;2.90;;
38937;SDS011;24727;51.974;20.868;2024-01-25T12:27:01;6.75;;;3.47;;
38937;SDS011;24727;51.974;20.868;2024-01-25T12:29:27;4.60;;;2.50;;
38937;SDS011;24727;51.974;20.868;2024-01-25T12:31:53;6.43;;;3.55;;
38937;SDS011;24727;51.974;20.868;2024-01-25T12:34:19;6.18;;;3.70;;
38937;SDS011;24727;51.974;20.868;2024-01-25T12:36:45;7.00;;;3.22;;
38937;SDS011;24727;51.974;20.868;2024-01-25T12:39:11;6.13;;;3.53;;
38937;SDS011;24727;51.974;20.868;2024-01-25T12:41:38;6.65;;;3.15;;
38937;SDS011;24727;51.974;20.868;2024-01-25T12:44:04;5.95;;;2.92;;
38937;SDS011;24727;51.974;20.868;2024-01-25T12:46:30;9.18;;;3.30;;
38937;SDS011;24727;51.974;20.868;2024-01-25T12:48:55;5.20;;;3.45;;
38937;SDS011;24727;51.974;20.868;2024-01-25T12:51:22;6.88;;;3.30;;
38937;SDS011;24727;51.974;20.868;2024-01-25T12:53:49;5.00;;;3.08;;
38937;SDS011;24727;51.974;20.868;2024-01-25T12:56:15;5.63;;;3.20;;
38937;SDS011;24727;51.974;20.868;2024-01-25T12:58:41;6.32;;;3.83;;
38937;SDS011;24727;51.974;20.868;2024-01-25T13:01:07;6.70;;;3.30;;
38937;SDS011;24727;51.974;20.868;2024-01-25T13:03:34;5.55;;;3.20;;
38937;SDS011;24727;51.974;20.868;2024-01-25T13:06:00;7.15;;;3.33;;
38937;SDS011;24727;51.974;20.868;2024-01-25T13:08:28;5.57;;;3.38;;
38937;SDS011;24727;51.974;20.868;2024-01-25T13:10:54;6.30;;;3.70;;
38937;SDS011;24727;51.974;20.868;2024-01-25T13:13:20;6.18;;;4.32;;
38937;SDS011;24727;51.974;20.868;2024-01-25T13:15:46;5.78;;;3.92;;
38937;SDS011;24727;51.974;20.868;2024-01-25T13:18:11;10.05;;;4.30;;
38937;SDS011;24727;51.974;20.868;2024-01-25T13:20:37;8.90;;;4.25;;
38937;SDS011;24727;51.974;20.868;2024-01-25T13:23:03;5.05;;;3.30;;
38937;SDS011;24727;51.974;20.868;2024-01-25T13:25:29;7.00;;;3.55;;
38937;SDS011;24727;51.974;20.868;2024-01-25T13:27:55;6.05;;;2.95;;
38937;SDS011;24727;51.974;20.868;2024-01-25T13:30:21;8.25;;;3.38;;
38937;SDS011;24727;51.974;20.868;2024-01-25T13:32:47;6.47;;;3.65;;
38937;SDS011;24727;51.974;20.868;2024-01-25T13:35:13;8.75;;;4.18;;
38937;SDS011;24727;51.974;20.868;2024-01-25T13:37:38;5.18;;;2.63;;
38937;SDS011;24727;51.974;20.868;2024-01-25T13:40:04;4.60;;;2.33;;
38937;SDS011;24727;51.974;20.868;2024-01-25T13:42:31;3.65;;;2.72;;
38937;SDS011;24727;51.974;20.868;2024-01-25T13:44:57;3.30;;;2.00;;
38937;SDS011;24727;51.974;20.868;2024-01-25T13:47:23;3.08;;;2.33;;
38937;SDS011;24727;51.974;20.868;2024-01-25T13:49:49;3.53;;;2.10;;
38937;SDS011;24727;51.974;20.868;2024-01-25T13:52:18;3.28;;;1.58;;
38937;SDS011;24727;51.974;20.868;2024-01-25T13:54:45;3.33;;;1.50;;
38937;SDS011;24727;51.974;20.868;2024-01-25T13:57:12;9.88;;;1.38;;
38937;SDS011;24727;51.974;20.868;2024-01-25T13:59:39;3.08;;;1.77;;
38937;SDS011;24727;51.974;20.868;2024-01-25T14:02:05;2.20;;;1.95;;
38937;SDS011;24727;51.974;20.868;2024-01-25T14:04:31;3.70;;;2.35;;
38937;SDS011;24727;51.974;20.868;2024-01-25T14:06:57;4.40;;;2.40;;
38937;SDS011;24727;51.974;20.868;2024-01-25T14:09:23;2.38;;;2.10;;
38937;SDS011;24727;51.974;20.868;2024-01-25T14:11:49;4.38;;;1.77;;
38937;SDS011;24727;51.974;20.868;2024-01-25T14:14:14;2.58;;;1.73;;
38937;SDS011;24727;51.974;20.868;2024-01-25T14:16:40;4.13;;;2.20;;
38937;SDS011;24727;51.974;20.868;2024-01-25T14:19:06;2.58;;;1.80;;
38937;SDS011;24727;51.974;20.868;2024-01-25T14:21:33;3.20;;;1.85;;
38937;SDS011;24727;51.974;20.868;2024-01-25T14:23:58;5.05;;;1.92;;
38937;SDS011;24727;51.974;20.868;2024-01-25T14:26:24;2.35;;;1.88;;
38937;SDS011;24727;51.974;20.868;2024-01-25T14:28:50;4.38;;;2.53;;
38937;SDS011;24727;51.974;20.868;2024-01-25T14:31:16;6.95;;;2.60;;
38937;SDS011;24727;51.974;20.868;2024-01-25T14:33:42;5.43;;;2.90;;
38937;SDS011;24727;51.974;20.868;2024-01-25T14:36:08;6.47;;;3.28;;
38937;SDS011;24727;51.974;20.868;2024-01-25T14:38:34;2.83;;;1.70;;
38937;SDS011;24727;51.974;20.868;2024-01-25T14:40:59;3.47;;;2.20;;
38937;SDS011;24727;51.974;20.868;2024-01-25T14:43:25;4.15;;;2.17;;
38937;SDS011;24727;51.974;20.868;2024-01-25T14:45:52;5.15;;;2.28;;
38937;SDS011;24727;51.974;20.868;2024-01-25T14:48:18;3.83;;;2.35;;
38937;SDS011;24727;51.974;20.868;2024-01-25T14:50:44;3.83;;;1.95;;
38937;SDS011;24727;51.974;20.868;2024-01-25T14:53:10;2.72;;;1.90;;
38937;SDS011;24727;51.974;20.868;2024-01-25T14:55:36;3.70;;;1.85;;
38937;SDS011;24727;51.974;20.868;2024-01-25T14:58:02;3.67;;;2.50;;
38937;SDS011;24727;51.974;20.868;2024-01-25T15:00:28;3.50;;;2.40;;
38937;SDS011;24727;51.974;20.868;2024-01-25T15:02:54;3.58;;;2.28;;
38937;SDS011;24727;51.974;20.868;2024-01-25T15:05:22;4.18;;;2.33;;
38937;SDS011;24727;51.974;20.868;2024-01-25T15:07:47;4.10;;;2.67;;
38937;SDS011;24727;51.974;20.868;2024-01-25T15:10:13;6.50;;;2.75;;
38937;SDS011;24727;51.974;20.868;2024-01-25T15:12:39;5.10;;;3.03;;
38937;SDS011;24727;51.974;20.868;2024-01-25T15:15:07;6.65;;;2.20;;
38937;SDS011;24727;51.974;20.868;2024-01-25T15:17:33;4.22;;;2.17;;
38937;SDS011;24727;51.974;20.868;2024-01-25T15:19:59;3.80;;;2.50;;
38937;SDS011;24727;51.974;20.868;2024-01-25T15:22:25;5.28;;;2.50;;
38937;SDS011;24727;51.974;20.868;2024-01-25T15:24:51;4.15;;;2.72;;
38937;SDS011;24727;51.974;20.868;2024-01-25T15:27:18;5.72;;;3.33;;
38937;SDS011;24727;51.974;20.868;2024-01-25T15:29:43;5.35;;;3.67;;
38937;SDS011;24727;51.974;20.868;2024-01-25T15:32:09;5.60;;;3.30;;
38937;SDS011;24727;51.974;20.868;2024-01-25T15:34:35;10.38;;;6.47;;
38937;SDS011;24727;51.974;20.868;2024-01-25T15:37:01;7.68;;;4.63;;
38937;SDS011;24727;51.974;20.868;2024-01-25T15:39:27;5.68;;;3.78;;
38937;SDS011;24727;51.974;20.868;2024-01-25T15:41:53;3.15;;;2.70;;
38937;SDS011;24727;51.974;20.868;2024-01-25T15:44:19;4.75;;;3.28;;
38937;SDS011;24727;51.974;20.868;2024-01-25T15:46:45;5.80;;;2.80;;